Terminal Aerodrome Forecast
Issued by NWS Billings, MT

Home | Current Version | Previous Version | Graphics & Text | Print | Product List | Glossary On
Versions: 1 2 3 4 5 6 7 8 9 10 11 12 13 14 15 16 17 18 19 20 21 22 23 24 25 26
718
FTUS45 KBYZ 132325
TAFMLS
TAF
KMLS 132325Z 1400/1424 32011KT P6SM BKN090
     FM140200 31010KT P6SM BKN070
     FM140600 31013G22KT P6SM BKN050
     FM141100 31020G29KT P6SM VCSH BKN030 OVC050
     FM142000 28012KT P6SM SCT030 OVC050=

USA.gov is the U.S. government's official web portal to all federal, state and local government web resources and services.